Terminal Aerodrome Forecast
Issued by NWS Louisville, KY

Home | Current Version | Previous Version | Text Only | Print | Product List | Glossary On
Versions: 1 2 3 4 5 6 7 8 9 10 11 12 13
000
FTUS43 KLMK 261100
TAFBWG
TAF
KBWG 261131Z 2612/2712 17004KT 6SM BR BKN250
     FM261600 20018G25KT P6SM VCTS BKN050CB
      TEMPO 2617/2620 5SM -TSRA BKN035CB
     FM262200 21013G20KT P6SM SCT040 BKN250
     FM270100 21010KT P6SM BKN040=

USA.gov is the U.S. government's official web portal to all federal, state and local government web resources and services.